createdAt,value
2017-10-02T00:01:48.122Z,11.57
2017-10-02T00:04:26.875Z,11.93
2017-10-02T00:07:12.465Z,12.13
2017-10-02T00:09:49.283Z,13.60
2017-10-02T00:12:24.887Z,11.40
2017-10-02T00:17:45.047Z,11.83
2017-10-02T00:20:20.704Z,11.00
2017-10-02T00:22:58.189Z,11.50
2017-10-02T00:28:20.530Z,11.50
2017-10-02T00:30:55.859Z,11.30
2017-10-02T00:33:36.181Z,10.50
2017-10-02T00:36:22.555Z,10.67
2017-10-02T00:39:06.899Z,10.97
2017-10-02T00:41:48.950Z,10.93
2017-10-02T00:44:24.249Z,10.83
2017-10-02T00:47:02.016Z,10.70
2017-10-02T00:49:37.388Z,10.80
2017-10-02T00:52:12.238Z,10.37
2017-10-02T00:54:47.825Z,10.20
2017-10-02T00:57:29.843Z,10.43
2017-10-02T01:00:07.100Z,11.20
2017-10-02T01:02:42.827Z,11.20
2017-10-02T01:05:17.783Z,11.07
2017-10-02T01:08:03.118Z,11.10
2017-10-02T01:10:38.102Z,10.80
2017-10-02T01:13:21.312Z,11.57
2017-10-02T01:16:07.712Z,10.10
2017-10-02T01:18:48.902Z,11.00
2017-10-02T01:24:12.691Z,9.60
2017-10-02T01:26:49.732Z,10.67
2017-10-02T01:29:28.827Z,10.43
2017-10-02T01:32:03.743Z,10.90
2017-10-02T01:37:31.096Z,10.10
2017-10-02T01:40:06.035Z,10.57
2017-10-02T01:42:41.400Z,10.37
2017-10-02T01:48:15.949Z,9.70
2017-10-02T01:50:51.237Z,11.67
2017-10-02T01:56:10.356Z,10.27
2017-10-02T01:58:46.000Z,11.03
2017-10-02T02:01:20.896Z,10.90
2017-10-02T02:04:03.755Z,10.07
2017-10-02T02:06:39.026Z,10.13
2017-10-02T02:09:14.913Z,9.40
2017-10-02T02:11:52.077Z,10.30
2017-10-02T02:14:30.758Z,10.40
2017-10-02T02:17:12.307Z,10.10
2017-10-02T02:19:54.327Z,9.80
2017-10-02T02:22:35.076Z,10.23
2017-10-02T02:25:18.765Z,10.20
2017-10-02T02:27:53.794Z,9.80
2017-10-02T02:30:35.863Z,10.30
2017-10-02T02:33:10.938Z,10.00
2017-10-02T02:35:48.320Z,9.53
2017-10-02T02:38:22.998Z,8.97
2017-10-02T02:41:04.426Z,9.80
2017-10-02T02:43:39.839Z,8.60
2017-10-02T02:48:59.217Z,11.00
2017-10-02T02:51:45.435Z,10.00
2017-10-02T02:54:24.957Z,9.63
2017-10-02T02:57:08.567Z,9.67
2017-10-02T02:59:43.437Z,9.40
2017-10-02T03:02:21.607Z,9.90
2017-10-02T03:05:01.632Z,9.20
2017-10-02T03:07:36.754Z,9.17
2017-10-02T03:10:21.695Z,9.43
2017-10-02T03:13:04.382Z,8.97
2017-10-02T03:15:43.447Z,9.67
2017-10-02T03:18:18.094Z,11.20
2017-10-02T03:23:49.121Z,9.70
2017-10-02T03:26:26.209Z,11.67
2017-10-02T03:29:04.661Z,10.87
2017-10-02T03:31:39.325Z,9.80
2017-10-02T03:34:15.343Z,11.10
2017-10-02T03:36:50.948Z,10.60
2017-10-02T03:39:31.950Z,10.93
2017-10-02T03:42:19.388Z,9.80
2017-10-02T03:44:47.340Z,10.07
2017-10-02T03:47:21.897Z,10.10
2017-10-02T03:49:56.533Z,10.10
2017-10-02T03:52:32.990Z,9.97
2017-10-02T03:55:09.702Z,10.60
2017-10-02T03:57:46.842Z,10.47
2017-10-02T04:00:13.659Z,10.10
2017-10-02T04:02:48.712Z,9.20
2017-10-02T04:05:24.685Z,8.80
2017-10-02T04:07:51.443Z,8.67
2017-10-02T04:10:28.814Z,8.80
2017-10-02T04:13:03.631Z,10.10
2017-10-02T04:15:39.156Z,9.60
2017-10-02T04:18:18.416Z,10.23
2017-10-02T04:20:53.586Z,9.83
2017-10-02T04:23:29.001Z,10.00
2017-10-02T04:26:03.892Z,10.00
2017-10-02T04:28:38.738Z,10.60
2017-10-02T04:31:14.398Z,9.80
2017-10-02T04:39:29.721Z,10.00
2017-10-02T04:42:04.400Z,9.50
2017-10-02T04:44:39.159Z,10.47
2017-10-02T04:47:05.956Z,9.30
2017-10-02T04:49:42.766Z,9.67
2017-10-02T04:52:17.544Z,9.20
2017-10-02T04:54:53.555Z,9.20
2017-10-02T04:57:29.000Z,9.90
2017-10-02T04:59:57.279Z,10.00
2017-10-02T05:02:32.229Z,9.33
2017-10-02T05:05:07.681Z,9.13
2017-10-02T05:07:42.894Z,16.63
2017-10-02T05:10:23.675Z,12.90
2017-10-02T05:12:58.830Z,10.33
2017-10-02T05:15:33.641Z,10.10
2017-10-02T05:18:08.334Z,9.17
2017-10-02T05:20:43.404Z,8.53
2017-10-02T05:23:18.458Z,8.53
2017-10-02T05:25:55.283Z,9.37
2017-10-02T05:28:30.206Z,9.57
2017-10-02T05:31:05.682Z,9.50
2017-10-02T05:33:41.126Z,9.07
2017-10-02T05:36:15.857Z,9.10
2017-10-02T05:38:50.652Z,8.63
2017-10-02T05:41:26.141Z,8.40
2017-10-02T05:43:52.909Z,8.70
2017-10-02T05:46:27.499Z,8.90
2017-10-02T05:49:02.073Z,8.80
2017-10-02T05:51:36.775Z,8.60
2017-10-02T05:54:12.283Z,8.80
2017-10-02T05:56:48.048Z,9.43
2017-10-02T05:59:23.334Z,8.53
2017-10-02T06:02:00.309Z,9.33
2017-10-02T06:04:35.198Z,10.03
2017-10-02T06:07:10.567Z,8.53
2017-10-02T06:09:45.826Z,8.80
2017-10-02T06:12:25.034Z,7.97
2017-10-02T06:14:59.796Z,8.80
2017-10-02T06:17:35.274Z,9.53
2017-10-02T06:20:09.781Z,8.50
2017-10-02T06:22:45.071Z,7.30
2017-10-02T06:25:20.494Z,7.23
2017-10-02T06:27:56.978Z,7.70
2017-10-02T06:30:31.867Z,7.43
2017-10-02T06:33:06.553Z,7.27
2017-10-02T06:35:41.174Z,7.50
2017-10-02T06:38:16.711Z,8.10
2017-10-02T06:40:51.244Z,7.97
2017-10-02T06:43:26.668Z,6.97
2017-10-02T06:46:01.338Z,7.93
2017-10-02T06:48:35.919Z,7.20
2017-10-02T06:51:10.462Z,7.57
2017-10-02T06:53:45.913Z,7.17
2017-10-02T06:56:22.717Z,7.40
2017-10-02T06:58:57.467Z,8.50
2017-10-02T07:01:32.174Z,6.60
2017-10-02T07:04:08.656Z,7.20
2017-10-02T07:06:43.668Z,6.87
2017-10-02T07:09:19.782Z,7.37
2017-10-02T07:11:54.771Z,6.37
2017-10-02T07:14:31.224Z,6.90
2017-10-02T07:17:06.217Z,7.60
2017-10-02T07:19:43.175Z,7.30
2017-10-02T07:22:18.236Z,7.20
2017-10-02T07:24:52.811Z,6.80
2017-10-02T07:27:27.766Z,6.63
2017-10-02T07:30:02.587Z,7.67
2017-10-02T07:32:38.008Z,7.70
2017-10-02T07:35:12.934Z,6.73
2017-10-02T07:37:48.405Z,7.03
2017-10-02T07:40:27.370Z,6.83
2017-10-02T07:43:02.777Z,5.93
2017-10-02T07:45:31.412Z,6.93
2017-10-02T07:48:05.913Z,6.37
2017-10-02T07:50:40.524Z,6.60
2017-10-02T07:53:15.928Z,6.87
2017-10-02T07:55:53.999Z,6.70
2017-10-02T07:58:28.973Z,6.27
2017-10-02T08:01:06.397Z,7.17
2017-10-02T08:03:41.133Z,6.63
2017-10-02T08:06:16.498Z,6.27
2017-10-02T08:08:51.271Z,6.73
2017-10-02T08:11:27.556Z,6.23
2017-10-02T08:14:02.463Z,6.70
2017-10-02T08:16:38.937Z,6.27
2017-10-02T08:19:13.460Z,6.87
2017-10-02T08:21:50.077Z,6.30
2017-10-02T08:24:25.414Z,6.07
2017-10-02T08:27:03.837Z,7.43
2017-10-02T08:29:38.948Z,6.77
2017-10-02T08:32:13.712Z,6.73
2017-10-02T08:34:48.971Z,6.63
2017-10-02T08:37:23.671Z,5.80
2017-10-02T08:39:58.937Z,6.43
2017-10-02T08:42:35.958Z,6.57
2017-10-02T08:45:12.698Z,6.23
2017-10-02T08:47:49.127Z,6.13
2017-10-02T08:50:23.607Z,6.23
2017-10-02T08:53:01.660Z,6.80
2017-10-02T08:55:38.628Z,5.77
2017-10-02T08:58:14.092Z,5.40
2017-10-02T09:00:48.664Z,5.87
2017-10-02T09:03:29.845Z,5.90
2017-10-02T09:06:05.225Z,5.93
2017-10-02T09:08:41.490Z,6.10
2017-10-02T09:11:16.297Z,8.33
2017-10-02T09:13:54.969Z,7.93
2017-10-02T09:16:30.490Z,8.30
2017-10-02T09:19:05.940Z,6.80
2017-10-02T09:21:40.409Z,6.83
2017-10-02T09:24:15.119Z,6.80
2017-10-02T09:26:52.560Z,6.90
2017-10-02T09:29:28.354Z,7.00
2017-10-02T09:32:03.353Z,7.00
2017-10-02T09:34:39.677Z,7.83
2017-10-02T09:37:15.279Z,8.67
2017-10-02T09:39:51.620Z,7.00
2017-10-02T09:42:26.229Z,6.90
2017-10-02T09:47:59.473Z,7.70
2017-10-02T09:50:34.841Z,7.80
2017-10-02T09:53:09.891Z,9.00
2017-10-02T09:55:45.084Z,8.50
2017-10-02T09:58:19.924Z,8.00
2017-10-02T10:00:54.448Z,7.10
2017-10-02T10:03:36.237Z,7.67
2017-10-02T10:06:10.995Z,6.77
2017-10-02T10:08:47.446Z,7.37
2017-10-02T10:11:23.237Z,6.70
2017-10-02T10:13:57.846Z,6.67
2017-10-02T10:16:34.130Z,7.47
2017-10-02T10:19:08.817Z,6.97
2017-10-02T10:21:48.361Z,6.60
2017-10-02T10:24:30.781Z,6.40
2017-10-02T10:27:10.724Z,7.27
2017-10-02T10:29:45.571Z,6.30
2017-10-02T10:32:22.048Z,6.10
2017-10-02T10:34:58.589Z,6.73
2017-10-02T10:37:33.164Z,6.87
2017-10-02T10:40:07.857Z,7.67
2017-10-02T10:42:43.253Z,7.47
2017-10-02T10:45:19.436Z,6.50
2017-10-02T10:47:54.353Z,7.00
2017-10-02T10:50:31.279Z,6.50
2017-10-02T10:53:06.463Z,7.00
2017-10-02T10:55:42.233Z,5.90
2017-10-02T10:58:16.763Z,6.33
2017-10-02T11:00:51.616Z,6.97
2017-10-02T11:03:26.322Z,7.20
2017-10-02T11:06:04.262Z,7.90
2017-10-02T11:08:41.678Z,6.60
2017-10-02T11:11:16.613Z,7.57
2017-10-02T11:13:51.962Z,7.30
2017-10-02T11:16:27.334Z,6.53
2017-10-02T11:19:02.512Z,8.40
2017-10-02T11:21:39.122Z,7.90
2017-10-02T11:24:14.547Z,7.10
2017-10-02T11:26:50.082Z,7.13
2017-10-02T11:29:25.346Z,7.00
2017-10-02T11:32:00.976Z,7.60
2017-10-02T11:34:36.336Z,6.80
2017-10-02T11:37:11.001Z,7.07
2017-10-02T11:39:45.711Z,7.00
2017-10-02T11:42:20.357Z,6.40
2017-10-02T11:44:47.048Z,7.23
2017-10-02T11:47:24.252Z,7.53
2017-10-02T11:49:58.907Z,7.77
2017-10-02T11:52:35.398Z,7.53
2017-10-02T11:55:11.121Z,7.53
2017-10-02T11:57:47.965Z,7.20
2017-10-02T12:00:22.963Z,7.00
2017-10-02T12:02:59.396Z,5.90
2017-10-02T12:05:34.291Z,6.43
2017-10-02T12:08:11.935Z,5.80
2017-10-02T12:10:46.918Z,6.07
2017-10-02T12:13:24.266Z,6.70
2017-10-02T12:15:59.058Z,7.27
2017-10-02T12:18:37.500Z,6.30
2017-10-02T12:21:12.920Z,6.57
2017-10-02T12:23:48.488Z,6.23
2017-10-02T12:26:23.304Z,6.00
2017-10-02T12:28:58.533Z,6.40
2017-10-02T12:31:33.553Z,5.97
2017-10-02T12:34:09.221Z,6.57
2017-10-02T12:36:45.819Z,6.03
2017-10-02T12:39:21.677Z,6.10
2017-10-02T12:41:57.101Z,6.57
2017-10-02T12:44:31.997Z,6.20
2017-10-02T12:47:06.674Z,6.93
2017-10-02T12:49:42.505Z,6.90
2017-10-02T12:52:17.358Z,6.93
2017-10-02T12:54:53.444Z,6.80
2017-10-02T12:57:28.973Z,6.80
2017-10-02T13:00:04.753Z,6.50
2017-10-02T13:02:40.137Z,6.57
2017-10-02T13:05:17.899Z,6.93
2017-10-02T13:07:53.203Z,6.90
2017-10-02T13:10:29.120Z,7.47
2017-10-02T13:13:04.286Z,6.80
2017-10-02T13:15:40.128Z,8.07
2017-10-02T13:18:16.365Z,6.47
2017-10-02T13:20:51.298Z,6.23
2017-10-02T13:23:26.455Z,6.33
2017-10-02T13:26:01.044Z,6.20
2017-10-02T13:28:35.801Z,7.10
2017-10-02T13:31:10.592Z,6.67
2017-10-02T13:33:45.284Z,6.20
2017-10-02T13:36:20.206Z,6.27
2017-10-02T13:38:54.762Z,6.70
2017-10-02T13:41:30.602Z,7.73
2017-10-02T13:43:57.304Z,5.93
2017-10-02T13:46:32.718Z,6.57
2017-10-02T13:49:07.927Z,7.20
2017-10-02T13:51:43.274Z,5.70
2017-10-02T13:54:18.569Z,6.93
2017-10-02T13:56:56.403Z,6.23
2017-10-02T13:59:31.439Z,7.03
2017-10-02T14:02:06.036Z,7.03
2017-10-02T14:04:41.494Z,7.30
2017-10-02T14:07:16.961Z,6.20
2017-10-02T14:09:51.478Z,6.80
2017-10-02T14:12:27.113Z,7.13
2017-10-02T14:15:02.574Z,7.67
2017-10-02T14:17:38.965Z,7.10
2017-10-02T14:20:13.652Z,7.13
2017-10-02T14:22:49.479Z,6.50
2017-10-02T14:25:24.468Z,7.13
2017-10-02T14:27:59.933Z,6.57
2017-10-02T14:30:34.514Z,7.00
2017-10-02T14:33:10.827Z,6.83
2017-10-02T14:35:45.427Z,6.77
2017-10-02T14:38:21.146Z,7.43
2017-10-02T14:40:56.591Z,6.63
2017-10-02T14:43:32.956Z,6.80
2017-10-02T14:46:07.926Z,8.20
2017-10-02T14:48:43.567Z,7.03
2017-10-02T14:51:18.783Z,8.43
2017-10-02T14:53:53.453Z,6.77
2017-10-02T14:56:28.062Z,7.70
2017-10-02T14:59:05.482Z,7.73
2017-10-02T15:01:39.934Z,8.33
2017-10-02T15:04:14.544Z,7.50
2017-10-02T15:06:49.826Z,8.00
2017-10-02T15:09:26.391Z,6.50
2017-10-02T15:12:02.011Z,7.63
2017-10-02T15:14:46.021Z,7.10
2017-10-02T15:17:22.779Z,7.40
2017-10-02T15:19:58.789Z,7.33
2017-10-02T15:22:34.034Z,6.77
2017-10-02T15:25:10.323Z,8.30
2017-10-02T15:27:45.017Z,6.83
2017-10-02T15:30:20.578Z,7.00
2017-10-02T15:32:57.953Z,6.50
2017-10-02T15:35:34.259Z,7.20
2017-10-02T15:38:09.084Z,7.40
2017-10-02T15:40:44.566Z,8.30
2017-10-02T15:43:19.949Z,6.80
2017-10-02T15:45:46.759Z,8.43
2017-10-02T15:48:21.339Z,6.47
2017-10-02T15:50:56.553Z,6.50
2017-10-02T15:53:31.593Z,7.30
2017-10-02T15:56:06.147Z,6.87
2017-10-02T15:58:40.918Z,7.73
2017-10-02T16:01:16.883Z,7.57
2017-10-02T16:03:51.448Z,6.60
2017-10-02T16:06:26.339Z,7.37
2017-10-02T16:09:03.736Z,6.70
2017-10-02T16:11:38.531Z,6.67
2017-10-02T16:14:13.125Z,6.07
2017-10-02T16:16:50.917Z,7.90
2017-10-02T16:19:25.784Z,7.77
2017-10-02T16:22:02.146Z,7.23
2017-10-02T16:24:36.891Z,6.87
2017-10-02T16:27:13.250Z,8.10
2017-10-02T16:29:50.752Z,7.60
2017-10-02T16:32:26.499Z,8.00
2017-10-02T16:35:01.330Z,8.23
2017-10-02T16:37:35.925Z,7.00
2017-10-02T16:40:12.070Z,7.30
2017-10-02T16:42:50.424Z,7.27
2017-10-02T16:45:30.566Z,7.63
2017-10-02T16:48:06.023Z,7.73
2017-10-02T16:50:41.465Z,7.70
2017-10-02T16:53:16.785Z,7.10
2017-10-02T16:55:52.273Z,10.70
2017-10-02T16:58:27.659Z,11.83
2017-10-02T17:00:54.386Z,11.87
2017-10-02T17:03:21.134Z,10.47
2017-10-02T17:06:01.103Z,7.20
2017-10-02T17:08:36.564Z,7.77
2017-10-02T17:11:05.021Z,8.60
2017-10-02T17:13:31.862Z,8.27
2017-10-02T17:15:58.657Z,7.30
2017-10-02T17:18:34.117Z,7.03
2017-10-02T17:21:11.643Z,7.67
2017-10-02T17:23:46.700Z,7.70
2017-10-02T17:26:22.012Z,7.80
2017-10-02T17:29:00.945Z,8.00
2017-10-02T17:31:36.303Z,7.10
2017-10-02T17:34:15.164Z,7.70
2017-10-02T17:36:49.722Z,7.30
2017-10-02T17:39:30.581Z,7.83
2017-10-02T17:42:05.303Z,8.60
2017-10-02T17:44:32.182Z,8.20
2017-10-02T17:47:12.059Z,7.73
2017-10-02T17:49:47.507Z,7.03
2017-10-02T17:52:22.117Z,8.40
2017-10-02T17:54:57.721Z,8.23
2017-10-02T17:57:32.601Z,8.40
2017-10-02T18:00:08.115Z,7.90
2017-10-02T18:02:34.796Z,7.93
2017-10-02T18:05:11.054Z,7.43
2017-10-02T18:07:46.028Z,8.40
2017-10-02T18:10:22.136Z,8.83
2017-10-02T18:12:49.165Z,7.27
2017-10-02T18:15:27.172Z,8.33
2017-10-02T18:18:02.764Z,9.10
2017-10-02T18:20:39.366Z,7.73
2017-10-02T18:23:14.367Z,8.50
2017-10-02T18:25:49.384Z,8.20
2017-10-02T18:28:24.230Z,7.90
2017-10-02T18:30:59.431Z,7.80
2017-10-02T18:33:35.046Z,8.57
2017-10-02T18:36:12.547Z,8.57
2017-10-02T18:38:47.767Z,8.40
2017-10-02T18:41:25.246Z,7.73
2017-10-02T18:44:00.656Z,8.37
2017-10-02T18:46:37.532Z,8.27
2017-10-02T18:49:13.170Z,7.77
2017-10-02T18:51:51.525Z,7.87
2017-10-02T18:54:26.306Z,7.83
2017-10-02T18:57:02.170Z,7.93
2017-10-02T18:59:37.593Z,7.53
2017-10-02T19:02:14.360Z,8.20
2017-10-02T19:04:49.995Z,8.60
2017-10-02T19:09:42.018Z,9.93
2017-10-02T19:12:21.822Z,11.10
2017-10-02T19:14:57.706Z,11.70
2017-10-02T19:17:33.127Z,12.30
2017-10-02T19:20:09.424Z,11.53
2017-10-02T19:22:45.072Z,10.97
2017-10-02T19:25:23.272Z,11.43
2017-10-02T19:27:50.371Z,11.10
2017-10-02T19:30:25.488Z,10.00
2017-10-02T19:33:02.957Z,10.30
2017-10-02T19:35:30.664Z,10.55
2017-10-02T19:38:05.790Z,10.47
2017-10-02T19:40:45.794Z,9.80
2017-10-02T19:43:20.898Z,10.60
2017-10-02T19:45:48.080Z,10.10
2017-10-02T19:48:23.803Z,9.30
2017-10-02T19:50:59.112Z,8.70
2017-10-02T19:53:34.481Z,9.13
2017-10-02T19:56:10.089Z,9.27
2017-10-02T19:58:45.488Z,9.43
2017-10-02T20:01:22.808Z,9.73
2017-10-02T20:03:58.355Z,9.60
2017-10-02T20:06:37.049Z,9.70
2017-10-02T20:09:12.798Z,9.77
2017-10-02T20:11:48.010Z,9.60
2017-10-02T20:14:25.568Z,9.47
2017-10-02T20:17:01.203Z,10.17
2017-10-02T20:19:36.750Z,9.07
2017-10-02T20:22:12.185Z,9.50
2017-10-02T20:24:47.166Z,9.40
2017-10-02T20:27:23.552Z,9.40
2017-10-02T20:29:59.185Z,9.00
2017-10-02T20:32:34.672Z,8.77
2017-10-02T20:35:09.886Z,10.17
2017-10-02T20:37:45.522Z,9.20
2017-10-02T20:40:21.172Z,9.67
2017-10-02T20:42:57.479Z,9.80
2017-10-02T20:45:32.805Z,8.83
2017-10-02T20:48:09.094Z,9.67
2017-10-02T20:50:44.781Z,10.10
2017-10-02T20:53:20.348Z,9.30
2017-10-02T20:55:55.661Z,8.87
2017-10-02T20:58:31.292Z,9.57
2017-10-02T21:01:06.747Z,10.50
2017-10-02T21:03:45.931Z,9.90
2017-10-02T21:06:21.051Z,9.60
2017-10-02T21:08:59.653Z,9.17
2017-10-02T21:11:35.096Z,9.80
2017-10-02T21:14:10.456Z,8.90
2017-10-02T21:16:45.707Z,10.40
2017-10-02T21:19:22.519Z,9.47
2017-10-02T21:21:59.641Z,9.73
2017-10-02T21:24:38.535Z,9.70
2017-10-02T21:27:13.775Z,10.47
2017-10-02T21:29:50.207Z,9.80
2017-10-02T21:32:25.856Z,9.97
2017-10-02T21:35:02.241Z,9.73
2017-10-02T21:37:39.245Z,9.10
2017-10-02T21:40:15.123Z,10.27
2017-10-02T21:42:50.588Z,9.97
2017-10-02T21:48:31.971Z,9.50
2017-10-02T21:51:12.578Z,8.73
2017-10-02T21:53:50.999Z,9.90
2017-10-02T21:56:26.088Z,9.23
2017-10-02T21:59:02.312Z,9.47
2017-10-02T22:01:38.022Z,9.93
2017-10-02T22:04:13.419Z,9.60
2017-10-02T22:06:48.708Z,9.50
2017-10-02T22:09:25.807Z,9.87
2017-10-02T22:12:01.142Z,9.27
2017-10-02T22:14:37.129Z,9.87
2017-10-02T22:17:11.916Z,9.03
2017-10-02T22:19:47.928Z,9.00
2017-10-02T22:22:23.627Z,10.83
2017-10-02T22:24:59.833Z,10.30
2017-10-02T22:27:35.447Z,9.77
2017-10-02T22:30:11.265Z,9.27
2017-10-02T22:32:46.843Z,10.60
2017-10-02T22:35:22.842Z,9.57
2017-10-02T22:37:58.321Z,9.63
2017-10-02T22:40:34.331Z,10.50
2017-10-02T22:43:09.961Z,10.17
2017-10-02T22:45:45.610Z,10.47
2017-10-02T22:48:20.942Z,10.40
2017-10-02T22:50:58.277Z,11.10
2017-10-02T22:53:34.089Z,12.37
2017-10-02T22:56:10.196Z,10.17
2017-10-02T22:58:45.790Z,11.50
2017-10-02T23:01:22.406Z,10.57
2017-10-02T23:03:57.928Z,11.10
2017-10-02T23:06:34.206Z,11.50
2017-10-02T23:09:10.369Z,10.27
2017-10-02T23:11:46.148Z,11.23
2017-10-02T23:14:21.623Z,11.40
2017-10-02T23:16:57.394Z,10.87
2017-10-02T23:19:32.758Z,11.20
2017-10-02T23:22:08.240Z,10.97
2017-10-02T23:24:44.033Z,11.97
2017-10-02T23:27:13.109Z,10.20
2017-10-02T23:29:48.142Z,11.30
2017-10-02T23:32:25.529Z,10.60
2017-10-02T23:35:00.714Z,10.43
2017-10-02T23:37:38.729Z,10.57
2017-10-02T23:40:13.737Z,10.83
2017-10-02T23:42:52.351Z,10.67
2017-10-02T23:45:19.383Z,10.97
2017-10-02T23:47:56.544Z,10.03
2017-10-02T23:50:31.645Z,10.83
2017-10-02T23:53:07.029Z,10.80
2017-10-02T23:55:42.530Z,11.43
2017-10-02T23:58:18.079Z,11.87
